Yuba County Airport Marysville US
ICAO: KMYV
IATA: MYV
Category: Medium
Scheduled Services: No

Elevation: 64 ft
TransAlt. 18000 ft.

Airport Communications:
NORCAL APP/DEP:125.4
ASOS:118.475
RANCHO RDO:122.6
CTAF/UNICOM:123.05

KMYV Zoom In..

Runways:

(A) RW 05 length 3281 ft width 60 ft
---- / hdg 51

(B) RW 14 length 6006 ft width 150 ft
ILS 110.50 / hdg 141

(C) RW 23 length 3281 ft width 60 ft
---- / hdg 231

(D) RW 32 length 6006 ft width 150 ft
---- / hdg 321

Location; KMYV
Day. 13 / Time. 12.53 Zulu
* Altimeter: 29.77
* Temperature: 19° c. 66.2°f.
* Wind from: 130° Speed 04 kn.
Dewpoint: 12° c.
Visibility: 10 Statute Miles.
Clouds: Clear (automated report).

KMYV 131253Z AUTO 13004KT 10SM CLR 19/12 A2977 RMK AO2 SLP085 T01940122

Going to: --> -->


Wind From 130°
Speed 04 kn.

 
 
jpsmedia worldairports.se 2020   terms of use